Terminal Aerodrome Forecast
Issued by NWS

Home | Current Version | Previous Version | Graphics & Text | Print | Product List | Glossary On
Versions: 1 2 3 4 5 6 7 8 9 10 11 12 13 14 15 16 17
000
FTUS43 KTOP 202200 AAA
TAFFOE
TAF AMD
KFOE 202224Z 2022/2118 01010KT P6SM SCT017 BKN024
     FM210400 36005KT P6SM FEW015 SCT025 BKN035
      TEMPO 2104/2106 BKN025
     FM211100 34006KT P6SM BKN200=

USA.gov is the U.S. government's official web portal to all federal, state and local government web resources and services.